createdAt,value
2023-05-01T00:01:02.757Z,12.15
2023-05-01T00:03:47.026Z,11.97
2023-05-01T00:06:33.395Z,12.06
2023-05-01T00:09:18.494Z,12.44
2023-05-01T00:12:02.982Z,12.46
2023-05-01T00:14:46.858Z,12.30
2023-05-01T00:17:31.155Z,12.58
2023-05-01T00:20:15.149Z,12.59
2023-05-01T00:23:00.348Z,12.40
2023-05-01T00:25:44.230Z,12.36
2023-05-01T00:28:28.269Z,12.43
2023-05-01T00:31:12.733Z,12.67
2023-05-01T00:33:57.265Z,12.74
2023-05-01T00:36:41.148Z,12.93
2023-05-01T00:39:26.519Z,12.99
2023-05-01T00:42:10.327Z,12.74
2023-05-01T00:44:54.079Z,12.89
2023-05-01T00:47:38.358Z,12.99
2023-05-01T00:50:22.344Z,12.88
2023-05-01T00:53:06.485Z,13.15
2023-05-01T00:55:52.454Z,12.93
2023-05-01T00:58:36.266Z,13.19
2023-05-01T01:01:21.154Z,13.02
2023-05-01T01:04:05.088Z,13.01
2023-05-01T01:06:57.461Z,13.00
2023-05-01T01:09:55.849Z,12.87
2023-05-01T01:12:53.709Z,12.95
2023-05-01T01:15:45.786Z,13.17
2023-05-01T01:18:37.757Z,13.40
2023-05-01T01:21:28.599Z,13.18
2023-05-01T01:24:49.125Z,13.30
2023-05-01T01:27:51.139Z,13.26
2023-05-01T01:31:13.069Z,13.17
2023-05-01T01:34:04.207Z,13.40
2023-05-01T01:36:52.388Z,13.47
2023-05-01T01:39:44.456Z,13.43
2023-05-01T01:42:34.774Z,13.46
2023-05-01T01:45:23.224Z,13.54
2023-05-01T01:48:10.167Z,13.78
2023-05-01T01:50:58.769Z,13.81
2023-05-01T01:53:47.493Z,13.74
2023-05-01T01:56:33.107Z,13.65
2023-05-01T01:59:18.335Z,13.75
2023-05-01T02:02:03.963Z,13.66
2023-05-01T02:04:49.256Z,13.53
2023-05-01T02:07:35.948Z,13.89
2023-05-01T02:10:22.886Z,13.99
2023-05-01T02:13:07.446Z,13.70
2023-05-01T02:15:53.367Z,13.67
2023-05-01T02:18:38.705Z,13.80
2023-05-01T02:21:23.450Z,13.77
2023-05-01T02:24:10.463Z,13.94
2023-05-01T02:26:59.614Z,13.82
2023-05-01T02:29:44.645Z,13.07
2023-05-01T02:32:28.698Z,13.71
2023-05-01T02:35:13.207Z,13.48
2023-05-01T02:37:57.421Z,13.72
2023-05-01T02:40:46.721Z,14.11
2023-05-01T02:43:34.282Z,14.33
2023-05-01T02:46:19.867Z,14.56
2023-05-01T02:49:05.390Z,14.21
2023-05-01T02:51:50.289Z,13.79
2023-05-01T02:54:34.318Z,13.45
2023-05-01T02:57:20.497Z,13.28
2023-05-01T03:00:09.473Z,13.41
2023-05-01T03:02:53.325Z,12.99
2023-05-01T03:05:37.323Z,12.07
2023-05-01T03:08:21.108Z,12.92
2023-05-01T03:11:07.042Z,12.55
2023-05-01T03:13:52.158Z,12.45
2023-05-01T03:16:36.175Z,12.81
2023-05-01T03:19:19.982Z,13.17
2023-05-01T03:22:04.160Z,13.33
2023-05-01T03:24:48.390Z,13.63
2023-05-01T03:27:32.363Z,13.95
2023-05-01T03:30:17.708Z,14.22
2023-05-01T03:33:01.767Z,14.27
2023-05-01T03:35:48.827Z,14.45
2023-05-01T03:38:33.849Z,14.38
2023-05-01T03:41:26.984Z,14.53
2023-05-01T03:44:24.329Z,14.72
2023-05-01T03:47:10.385Z,13.83
2023-05-01T03:49:58.372Z,13.93
2023-05-01T03:52:43.089Z,14.37
2023-05-01T03:55:27.029Z,13.99
2023-05-01T03:58:11.785Z,14.11
2023-05-01T04:00:57.088Z,14.30
2023-05-01T04:03:42.804Z,14.37
2023-05-01T04:06:27.317Z,14.67
2023-05-01T04:09:11.231Z,14.72
2023-05-01T04:11:55.100Z,14.95
2023-05-01T04:14:38.982Z,15.03
2023-05-01T04:17:23.283Z,15.19
2023-05-01T04:20:09.602Z,15.25
2023-05-01T04:22:53.666Z,15.28
2023-05-01T04:25:38.165Z,15.78
2023-05-01T04:28:31.133Z,16.08
2023-05-01T04:31:15.143Z,16.47
2023-05-01T04:33:58.939Z,16.18
2023-05-01T04:36:44.513Z,16.23
2023-05-01T04:39:28.905Z,16.64
2023-05-01T04:42:14.211Z,16.60
2023-05-01T04:44:58.083Z,16.36
2023-05-01T04:47:41.976Z,16.27
2023-05-01T04:50:26.189Z,16.36
2023-05-01T04:53:11.653Z,15.91
2023-05-01T04:55:56.712Z,15.69
2023-05-01T04:58:40.655Z,15.76
2023-05-01T05:01:28.606Z,15.35
2023-05-01T05:04:13.558Z,15.19
2023-05-01T05:06:57.511Z,15.23
2023-05-01T05:09:52.948Z,15.52
2023-05-01T05:12:37.235Z,15.75
2023-05-01T05:15:21.707Z,16.18
2023-05-01T05:18:05.696Z,16.42
2023-05-01T05:20:50.006Z,16.85
2023-05-01T05:23:34.579Z,16.88
2023-05-01T05:26:20.005Z,17.39
2023-05-01T05:29:05.319Z,17.51
2023-05-01T05:31:49.389Z,17.16
2023-05-01T05:34:34.671Z,17.15
2023-05-01T05:37:18.498Z,17.34
2023-05-01T05:40:09.755Z,17.34
2023-05-01T05:43:05.139Z,17.17
2023-05-01T05:45:49.365Z,17.39
2023-05-01T05:48:33.510Z,17.55
2023-05-01T05:51:17.706Z,17.43
2023-05-01T05:54:01.547Z,17.36
2023-05-01T05:56:47.350Z,17.52
2023-05-01T05:59:32.818Z,17.71
2023-05-01T06:02:16.852Z,17.71
2023-05-01T06:05:01.308Z,17.71
2023-05-01T06:07:47.001Z,17.85
2023-05-01T06:10:31.214Z,17.65
2023-05-01T06:13:15.156Z,18.05
2023-05-01T06:16:07.530Z,18.15
2023-05-01T06:18:51.839Z,18.20
2023-05-01T06:21:36.403Z,18.15
2023-05-01T06:24:21.103Z,18.05
2023-05-01T06:27:07.975Z,18.05
2023-05-01T06:29:53.732Z,18.37
2023-05-01T06:32:39.266Z,18.65
2023-05-01T06:35:23.755Z,18.26
2023-05-01T06:38:07.852Z,18.26
2023-05-01T06:40:51.816Z,18.64
2023-05-01T06:43:35.764Z,18.86
2023-05-01T06:46:19.682Z,18.72
2023-05-01T06:49:05.760Z,18.71
2023-05-01T06:51:49.751Z,18.74
2023-05-01T06:54:33.639Z,18.72
2023-05-01T06:57:17.641Z,18.72
2023-05-01T07:00:02.274Z,18.37
2023-05-01T07:02:48.674Z,18.69
2023-05-01T07:05:34.287Z,18.88
2023-05-01T07:08:18.423Z,18.89
2023-05-01T07:11:02.674Z,18.84
2023-05-01T07:13:46.674Z,18.76
2023-05-01T07:16:30.804Z,18.94
2023-05-01T07:19:14.769Z,18.75
2023-05-01T07:22:00.057Z,18.65
2023-05-01T07:24:43.972Z,18.36
2023-05-01T07:27:28.578Z,18.45
2023-05-01T07:30:13.205Z,18.67
2023-05-01T07:32:57.407Z,19.03
2023-05-01T07:35:41.500Z,19.17
2023-05-01T07:38:27.102Z,19.14
2023-05-01T07:41:11.042Z,19.17
2023-05-01T07:43:55.128Z,19.33
2023-05-01T07:46:39.095Z,19.25
2023-05-01T07:49:22.926Z,19.54
2023-05-01T07:52:07.678Z,19.07
2023-05-01T07:54:53.593Z,19.22
2023-05-01T07:57:37.595Z,19.65
2023-05-01T08:00:21.604Z,18.87
2023-05-01T08:03:05.942Z,18.81
2023-05-01T08:05:50.177Z,18.66
2023-05-01T08:08:34.032Z,18.85
2023-05-01T08:11:19.520Z,19.28
2023-05-01T08:14:03.970Z,19.26
2023-05-01T08:16:47.915Z,19.07
2023-05-01T08:19:31.835Z,19.29
2023-05-01T08:22:15.728Z,19.33
2023-05-01T08:24:59.600Z,19.61
2023-05-01T08:27:44.908Z,20.15
2023-05-01T08:30:28.992Z,19.59
2023-05-01T08:33:13.051Z,19.62
2023-05-01T08:35:57.201Z,19.29
2023-05-01T08:38:41.167Z,18.95
2023-05-01T08:41:25.090Z,19.42
2023-05-01T08:44:12.015Z,19.48
2023-05-01T08:47:06.690Z,19.53
2023-05-01T08:49:53.589Z,19.65
2023-05-01T08:52:41.607Z,19.53
2023-05-01T08:55:27.579Z,19.81
2023-05-01T08:58:14.853Z,20.04
2023-05-01T09:01:01.467Z,20.32
2023-05-01T09:03:46.961Z,20.12
2023-05-01T09:06:32.513Z,20.25
2023-05-01T09:09:16.788Z,20.22
2023-05-01T09:12:03.402Z,20.45
2023-05-01T09:14:47.565Z,20.01
2023-05-01T09:17:33.680Z,20.00
2023-05-01T09:20:19.917Z,19.89
2023-05-01T09:23:04.069Z,19.45
2023-05-01T09:25:49.601Z,19.24
2023-05-01T09:28:42.818Z,19.52
2023-05-01T09:31:29.048Z,19.94
2023-05-01T09:34:14.563Z,20.31
2023-05-01T09:36:58.448Z,19.99
2023-05-01T09:39:42.295Z,20.13
2023-05-01T09:42:26.128Z,20.21
2023-05-01T09:45:15.174Z,20.29
2023-05-01T09:48:10.931Z,20.35
2023-05-01T09:50:56.228Z,20.35
2023-05-01T09:53:41.866Z,20.95
2023-05-01T09:56:27.491Z,20.59
2023-05-01T09:59:19.677Z,20.75
2023-05-01T10:02:03.778Z,20.58
2023-05-01T10:04:47.649Z,20.83
2023-05-01T10:07:33.242Z,20.75
2023-05-01T10:10:18.785Z,20.80
2023-05-01T10:13:15.815Z,20.65
2023-05-01T10:16:01.504Z,20.62
2023-05-01T10:18:45.659Z,20.82
2023-05-01T10:21:29.521Z,21.15
2023-05-01T10:24:16.453Z,21.29
2023-05-01T10:27:03.312Z,21.95
2023-05-01T10:29:49.158Z,22.39
2023-05-01T10:32:33.682Z,21.67
2023-05-01T10:35:22.978Z,21.91
2023-05-01T10:38:10.306Z,21.66
2023-05-01T10:40:55.640Z,21.31
2023-05-01T10:43:39.577Z,21.37
2023-05-01T10:46:31.028Z,21.64
2023-05-01T10:49:14.829Z,21.75
2023-05-01T10:52:03.917Z,21.47
2023-05-01T10:54:47.873Z,22.23
2023-05-01T10:57:46.172Z,22.69
2023-05-01T11:00:30.139Z,22.36
2023-05-01T11:03:36.009Z,22.47
2023-05-01T11:06:19.952Z,22.39
2023-05-01T11:09:04.664Z,22.15
2023-05-01T11:11:50.464Z,22.40
2023-05-01T11:15:05.674Z,22.69
2023-05-01T11:17:56.035Z,22.71
2023-05-01T11:21:02.741Z,22.63
2023-05-01T11:23:48.794Z,22.28
2023-05-01T11:26:33.179Z,22.27
2023-05-01T11:29:17.145Z,22.26
2023-05-01T11:32:02.804Z,22.47
2023-05-01T11:34:48.226Z,21.80
2023-05-01T11:37:42.832Z,22.07
2023-05-01T11:40:28.141Z,22.55
2023-05-01T11:43:12.785Z,22.86
2023-05-01T11:46:02.305Z,22.18
2023-05-01T11:48:51.948Z,22.08
2023-05-01T11:51:35.966Z,22.60
2023-05-01T11:54:19.871Z,22.19
2023-05-01T11:57:03.824Z,22.47
2023-05-01T11:59:48.216Z,22.42
2023-05-01T12:02:32.297Z,23.24
2023-05-01T12:05:18.557Z,23.02
2023-05-01T12:08:14.116Z,23.29
2023-05-01T12:10:58.842Z,23.89
2023-05-01T12:13:42.933Z,23.57
2023-05-01T12:16:28.407Z,22.47
2023-05-01T12:19:14.718Z,22.24
2023-05-01T12:22:09.626Z,23.06
2023-05-01T12:24:54.180Z,22.86
2023-05-01T12:27:44.469Z,23.02
2023-05-01T12:30:29.735Z,22.80
2023-05-01T12:33:15.179Z,21.60
2023-05-01T12:36:11.334Z,21.71
2023-05-01T12:39:04.384Z,22.23
2023-05-01T12:41:49.906Z,21.70
2023-05-01T12:44:33.772Z,22.25
2023-05-01T12:47:17.749Z,22.40
2023-05-01T12:50:05.461Z,21.53
2023-05-01T12:52:50.517Z,21.62
2023-05-01T12:55:45.769Z,20.88
2023-05-01T12:58:38.104Z,20.31
2023-05-01T13:01:27.420Z,20.45
2023-05-01T13:04:11.673Z,20.71
2023-05-01T13:06:56.655Z,20.73
2023-05-01T13:09:40.542Z,20.84
2023-05-01T13:12:26.463Z,20.35
2023-05-01T13:15:20.858Z,20.09
2023-05-01T13:18:08.090Z,20.45
2023-05-01T13:20:52.239Z,21.07
2023-05-01T13:23:36.486Z,21.44
2023-05-01T13:26:27.179Z,21.24
2023-05-01T13:29:15.760Z,20.84
2023-05-01T13:31:59.922Z,21.42
2023-05-01T13:34:44.682Z,22.31
2023-05-01T13:37:28.659Z,23.12
2023-05-01T13:40:13.535Z,22.36
2023-05-01T13:42:57.579Z,22.59
2023-05-01T13:45:42.997Z,22.59
2023-05-01T13:48:26.976Z,22.38
2023-05-01T13:51:11.638Z,22.62
2023-05-01T13:53:57.525Z,22.61
2023-05-01T13:56:42.346Z,22.42
2023-05-01T13:59:26.247Z,22.71
2023-05-01T14:02:21.814Z,22.72
2023-05-01T14:05:10.071Z,22.19
2023-05-01T14:07:56.952Z,21.51
2023-05-01T14:10:40.926Z,20.91
2023-05-01T14:13:25.848Z,20.14
2023-05-01T14:16:11.698Z,20.16
2023-05-01T14:18:58.425Z,20.45
2023-05-01T14:21:43.366Z,20.42
2023-05-01T14:24:29.102Z,19.73
2023-05-01T14:27:15.307Z,20.42
2023-05-01T14:29:59.738Z,20.82
2023-05-01T14:32:43.760Z,21.36
2023-05-01T14:35:29.351Z,20.92
2023-05-01T14:38:16.601Z,20.83
2023-05-01T14:41:00.493Z,20.67
2023-05-01T14:43:44.550Z,20.73
2023-05-01T14:46:31.286Z,20.91
2023-05-01T14:49:20.089Z,21.00
2023-05-01T14:52:06.931Z,21.21
2023-05-01T14:54:53.241Z,21.49
2023-05-01T14:57:37.233Z,21.23
2023-05-01T15:00:21.353Z,21.69
2023-05-01T15:03:05.502Z,21.85
2023-05-01T15:05:49.467Z,21.81
2023-05-01T15:08:34.790Z,22.15
2023-05-01T15:11:20.998Z,21.46
2023-05-01T15:14:06.108Z,21.81
2023-05-01T15:16:50.351Z,21.94
2023-05-01T15:19:34.462Z,21.30
2023-05-01T15:22:18.463Z,21.57
2023-05-01T15:25:04.049Z,21.93
2023-05-01T15:27:50.527Z,22.32
2023-05-01T15:30:34.786Z,21.66
2023-05-01T15:33:19.389Z,21.76
2023-05-01T15:36:03.560Z,21.48
2023-05-01T15:38:48.707Z,21.23
2023-05-01T15:41:34.089Z,20.89
2023-05-01T15:44:18.181Z,20.70
2023-05-01T15:47:02.172Z,20.68
2023-05-01T15:49:46.006Z,20.21
2023-05-01T15:52:29.922Z,20.69
2023-05-01T15:55:13.866Z,21.42
2023-05-01T15:57:59.744Z,21.46
2023-05-01T16:00:44.967Z,21.65
2023-05-01T16:03:29.432Z,21.17
2023-05-01T16:06:13.768Z,20.20
2023-05-01T16:08:58.992Z,20.25
2023-05-01T16:11:42.849Z,20.88
2023-05-01T16:14:28.247Z,20.29
2023-05-01T16:17:12.334Z,20.70
2023-05-01T16:19:56.640Z,20.71
2023-05-01T16:22:41.814Z,20.87
2023-05-01T16:25:25.911Z,20.83
2023-05-01T16:28:10.426Z,20.88
2023-05-01T16:30:55.987Z,20.56
2023-05-01T16:33:40.912Z,20.51
2023-05-01T16:36:24.662Z,19.72
2023-05-01T16:39:10.909Z,19.66
2023-05-01T16:41:56.427Z,19.68
2023-05-01T16:44:40.675Z,19.43
2023-05-01T16:47:26.047Z,19.37
2023-05-01T16:50:11.167Z,19.13
2023-05-01T16:52:55.427Z,18.94
2023-05-01T16:55:39.277Z,18.72
2023-05-01T16:58:23.076Z,18.35
2023-05-01T17:01:07.181Z,18.36
2023-05-01T17:03:52.641Z,18.43
2023-05-01T17:06:36.782Z,17.93
2023-05-01T17:09:20.886Z,17.86
2023-05-01T17:12:12.699Z,17.36
2023-05-01T17:14:56.711Z,17.60
2023-05-01T17:17:40.576Z,17.45
2023-05-01T17:20:25.823Z,16.91
2023-05-01T17:23:10.281Z,16.78
2023-05-01T17:25:54.184Z,16.39
2023-05-01T17:28:38.270Z,16.33
2023-05-01T17:31:22.845Z,16.31
2023-05-01T17:34:06.883Z,15.92
2023-05-01T17:36:52.118Z,15.57
2023-05-01T17:39:36.743Z,15.48
2023-05-01T17:42:20.652Z,15.52
2023-05-01T17:45:07.397Z,15.48
2023-05-01T17:47:51.816Z,15.33
2023-05-01T17:50:35.837Z,15.56
2023-05-01T17:53:21.072Z,15.47
2023-05-01T17:56:05.171Z,15.35
2023-05-01T17:58:49.065Z,14.95
2023-05-01T18:01:32.968Z,14.97
2023-05-01T18:04:17.111Z,14.70
2023-05-01T18:07:01.176Z,14.52
2023-05-01T18:09:46.416Z,14.36
2023-05-01T18:12:31.057Z,14.20
2023-05-01T18:15:19.378Z,14.36
2023-05-01T18:18:06.639Z,14.10
2023-05-01T18:20:50.799Z,13.87
2023-05-01T18:23:37.152Z,13.51
2023-05-01T18:26:22.631Z,13.91
2023-05-01T18:29:06.644Z,13.59
2023-05-01T18:31:51.611Z,13.69
2023-05-01T18:34:35.838Z,13.44
2023-05-01T18:37:19.894Z,13.52
2023-05-01T18:40:05.741Z,13.41
2023-05-01T18:42:51.228Z,13.31
2023-05-01T18:45:35.069Z,13.41
2023-05-01T18:48:18.961Z,13.51
2023-05-01T18:51:08.911Z,13.31
2023-05-01T18:53:56.213Z,13.22
2023-05-01T18:56:40.283Z,12.84
2023-05-01T18:59:27.140Z,12.80
2023-05-01T19:02:11.510Z,12.69
2023-05-01T19:04:57.830Z,12.99
2023-05-01T19:07:42.244Z,13.06
2023-05-01T19:10:26.323Z,13.02
2023-05-01T19:13:10.465Z,13.00
2023-05-01T19:15:55.857Z,12.78
2023-05-01T19:18:39.943Z,12.87
2023-05-01T19:21:24.246Z,12.55
2023-05-01T19:24:08.659Z,12.34
2023-05-01T19:26:52.701Z,12.17
2023-05-01T19:29:36.735Z,12.15
2023-05-01T19:32:23.222Z,12.31
2023-05-01T19:35:10.269Z,12.42
2023-05-01T19:37:57.310Z,12.30
2023-05-01T19:40:42.522Z,12.31
2023-05-01T19:43:26.506Z,12.29
2023-05-01T19:46:10.995Z,11.89
2023-05-01T19:48:56.407Z,12.37
2023-05-01T19:51:40.679Z,12.37
2023-05-01T19:54:26.243Z,12.39
2023-05-01T19:57:10.189Z,12.55
2023-05-01T19:59:55.779Z,12.46
2023-05-01T20:02:40.196Z,12.47
2023-05-01T20:05:28.350Z,12.54
2023-05-01T20:08:12.903Z,12.41
2023-05-01T20:10:57.651Z,12.24
2023-05-01T20:13:41.848Z,12.16
2023-05-01T20:16:27.917Z,12.18
2023-05-01T20:19:11.951Z,12.00
2023-05-01T20:21:58.151Z,12.07
2023-05-01T20:24:41.977Z,11.74
2023-05-01T20:27:26.253Z,11.90
2023-05-01T20:30:11.790Z,11.68
2023-05-01T20:32:55.893Z,12.09
2023-05-01T20:35:40.310Z,11.93
2023-05-01T20:38:26.022Z,12.04
2023-05-01T20:41:10.767Z,12.02
2023-05-01T20:43:54.855Z,11.90
2023-05-01T20:46:38.763Z,11.95
2023-05-01T20:49:23.000Z,12.03
2023-05-01T20:52:07.320Z,12.01
2023-05-01T20:54:52.778Z,11.89
2023-05-01T20:57:37.076Z,11.60
2023-05-01T21:00:21.076Z,11.84
2023-05-01T21:03:05.235Z,11.77
2023-05-01T21:05:49.241Z,11.83
2023-05-01T21:08:34.852Z,11.90
2023-05-01T21:11:21.133Z,11.88
2023-05-01T21:14:04.977Z,11.87
2023-05-01T21:16:50.167Z,11.78
2023-05-01T21:19:42.747Z,12.00
2023-05-01T21:22:26.702Z,11.97
2023-05-01T21:25:11.105Z,11.96
2023-05-01T21:27:57.330Z,12.01
2023-05-01T21:30:41.833Z,11.89
2023-05-01T21:33:26.112Z,11.87
2023-05-01T21:36:11.982Z,11.69
2023-05-01T21:38:56.711Z,11.59
2023-05-01T21:41:41.272Z,11.69
2023-05-01T21:44:31.129Z,11.66
2023-05-01T21:47:16.630Z,11.68
2023-05-01T21:50:01.106Z,11.52
2023-05-01T21:52:49.406Z,11.38
2023-05-01T21:55:34.006Z,11.21
2023-05-01T21:58:18.200Z,11.51
2023-05-01T22:01:03.547Z,11.42
2023-05-01T22:03:48.379Z,11.64
2023-05-01T22:06:32.565Z,11.53
2023-05-01T22:09:16.423Z,11.55
2023-05-01T22:12:00.486Z,11.55
2023-05-01T22:14:47.569Z,11.32
2023-05-01T22:17:33.080Z,11.39
2023-05-01T22:20:16.892Z,11.35
2023-05-01T22:23:01.097Z,11.32
2023-05-01T22:25:45.530Z,11.21
2023-05-01T22:28:29.445Z,11.37
2023-05-01T22:31:13.451Z,11.10
2023-05-01T22:33:58.770Z,11.06
2023-05-01T22:36:42.682Z,10.83
2023-05-01T22:39:26.621Z,10.55
2023-05-01T22:42:10.558Z,10.79
2023-05-01T22:44:54.673Z,10.72
2023-05-01T22:47:38.550Z,10.87
2023-05-01T22:50:24.242Z,11.04
2023-05-01T22:53:08.183Z,11.11
2023-05-01T22:55:52.160Z,11.10
2023-05-01T22:58:36.050Z,11.16
2023-05-01T23:01:20.045Z,11.14
2023-05-01T23:04:04.142Z,11.23
2023-05-01T23:06:49.851Z,11.12
2023-05-01T23:09:33.824Z,11.15
2023-05-01T23:12:22.748Z,11.10
2023-05-01T23:15:09.634Z,11.10
2023-05-01T23:17:53.939Z,11.05
2023-05-01T23:20:40.064Z,11.19
2023-05-01T23:23:29.984Z,11.07
2023-05-01T23:26:24.695Z,11.19
2023-05-01T23:29:08.849Z,11.21
2023-05-01T23:31:53.127Z,11.13
2023-05-01T23:34:37.343Z,11.07
2023-05-01T23:37:21.331Z,11.10
2023-05-01T23:40:09.413Z,10.93
2023-05-01T23:42:54.299Z,10.99
2023-05-01T23:45:38.262Z,11.05
2023-05-01T23:48:22.206Z,11.05
2023-05-01T23:51:07.059Z,11.10
2023-05-01T23:53:50.951Z,11.28
2023-05-01T23:56:36.741Z,11.22
2023-05-01T23:59:20.590Z,11.24
